sensor_id;sensor_type;location;lat;lon;timestamp;P1;durP1;ratioP1;P2;durP2;ratioP2
46447;SDS011;32145;50.390;30.778;2022-10-16T00:01:47;30.50;;;14.80;;
46447;SDS011;32145;50.390;30.778;2022-10-16T00:04:34;31.52;;;15.32;;
46447;SDS011;32145;50.390;30.778;2022-10-16T00:07:19;32.90;;;15.63;;
46447;SDS011;32145;50.390;30.778;2022-10-16T00:10:04;27.95;;;14.48;;
46447;SDS011;32145;50.390;30.778;2022-10-16T00:12:48;26.52;;;15.23;;
46447;SDS011;32145;50.390;30.778;2022-10-16T00:15:33;28.17;;;14.18;;
46447;SDS011;32145;50.390;30.778;2022-10-16T00:18:17;28.73;;;14.55;;
46447;SDS011;32145;50.390;30.778;2022-10-16T00:21:02;28.45;;;14.77;;
46447;SDS011;32145;50.390;30.778;2022-10-16T00:23:51;27.33;;;14.68;;
46447;SDS011;32145;50.390;30.778;2022-10-16T00:26:36;25.08;;;13.88;;
46447;SDS011;32145;50.390;30.778;2022-10-16T00:29:21;24.73;;;14.35;;
46447;SDS011;32145;50.390;30.778;2022-10-16T00:32:04;27.83;;;13.82;;
46447;SDS011;32145;50.390;30.778;2022-10-16T00:34:48;22.63;;;13.10;;
46447;SDS011;32145;50.390;30.778;2022-10-16T00:37:32;24.50;;;14.25;;
46447;SDS011;32145;50.390;30.778;2022-10-16T00:40:18;26.25;;;14.00;;
46447;SDS011;32145;50.390;30.778;2022-10-16T00:43:02;24.38;;;13.02;;
46447;SDS011;32145;50.390;30.778;2022-10-16T00:45:46;24.73;;;13.43;;
46447;SDS011;32145;50.390;30.778;2022-10-16T00:48:30;26.13;;;13.65;;
46447;SDS011;32145;50.390;30.778;2022-10-16T00:51:14;21.77;;;13.55;;
46447;SDS011;32145;50.390;30.778;2022-10-16T00:54:02;23.27;;;13.55;;
46447;SDS011;32145;50.390;30.778;2022-10-16T00:56:49;26.10;;;13.50;;
46447;SDS011;32145;50.390;30.778;2022-10-16T00:59:35;25.90;;;13.43;;
46447;SDS011;32145;50.390;30.778;2022-10-16T01:02:21;21.17;;;13.27;;
46447;SDS011;32145;50.390;30.778;2022-10-16T01:05:05;22.55;;;13.25;;
46447;SDS011;32145;50.390;30.778;2022-10-16T01:07:52;24.42;;;13.05;;
46447;SDS011;32145;50.390;30.778;2022-10-16T01:10:45;22.83;;;12.88;;
46447;SDS011;32145;50.390;30.778;2022-10-16T01:13:38;22.23;;;13.15;;
46447;SDS011;32145;50.390;30.778;2022-10-16T01:16:28;22.60;;;12.45;;
46447;SDS011;32145;50.390;30.778;2022-10-16T01:19:20;22.60;;;12.73;;
46447;SDS011;32145;50.390;30.778;2022-10-16T01:22:16;20.63;;;12.82;;
46447;SDS011;32145;50.390;30.778;2022-10-16T01:25:01;25.20;;;12.88;;
46447;SDS011;32145;50.390;30.778;2022-10-16T01:27:54;22.98;;;12.55;;
46447;SDS011;32145;50.390;30.778;2022-10-16T01:30:39;24.25;;;13.18;;
46447;SDS011;32145;50.390;30.778;2022-10-16T01:33:27;22.58;;;12.68;;
46447;SDS011;32145;50.390;30.778;2022-10-16T01:36:17;22.98;;;12.35;;
46447;SDS011;32145;50.390;30.778;2022-10-16T01:39:08;22.10;;;12.35;;
46447;SDS011;32145;50.390;30.778;2022-10-16T01:41:55;23.85;;;12.45;;
46447;SDS011;32145;50.390;30.778;2022-10-16T01:44:45;21.50;;;12.32;;
46447;SDS011;32145;50.390;30.778;2022-10-16T01:47:31;19.67;;;11.25;;
46447;SDS011;32145;50.390;30.778;2022-10-16T01:50:17;22.98;;;11.93;;
46447;SDS011;32145;50.390;30.778;2022-10-16T01:53:03;21.15;;;10.93;;
46447;SDS011;32145;50.390;30.778;2022-10-16T01:55:49;19.83;;;11.52;;
46447;SDS011;32145;50.390;30.778;2022-10-16T01:58:37;19.70;;;11.75;;
46447;SDS011;32145;50.390;30.778;2022-10-16T02:01:30;21.90;;;11.45;;
46447;SDS011;32145;50.390;30.778;2022-10-16T02:04:18;18.90;;;10.82;;
46447;SDS011;32145;50.390;30.778;2022-10-16T02:07:04;17.95;;;10.73;;
46447;SDS011;32145;50.390;30.778;2022-10-16T02:09:49;18.00;;;10.43;;
46447;SDS011;32145;50.390;30.778;2022-10-16T02:12:34;17.55;;;11.02;;
46447;SDS011;32145;50.390;30.778;2022-10-16T02:15:21;19.02;;;11.25;;
46447;SDS011;32145;50.390;30.778;2022-10-16T02:18:07;16.92;;;10.50;;
46447;SDS011;32145;50.390;30.778;2022-10-16T02:20:55;18.02;;;10.80;;
46447;SDS011;32145;50.390;30.778;2022-10-16T02:26:31;24.02;;;10.07;;
46447;SDS011;32145;50.390;30.778;2022-10-16T02:29:22;19.60;;;10.02;;
46447;SDS011;32145;50.390;30.778;2022-10-16T02:32:09;17.60;;;10.00;;
46447;SDS011;32145;50.390;30.778;2022-10-16T02:34:57;19.35;;;9.98;;
46447;SDS011;32145;50.390;30.778;2022-10-16T02:37:43;18.77;;;9.88;;
46447;SDS011;32145;50.390;30.778;2022-10-16T02:40:29;20.90;;;10.57;;
46447;SDS011;32145;50.390;30.778;2022-10-16T02:43:14;18.65;;;10.05;;
46447;SDS011;32145;50.390;30.778;2022-10-16T02:45:59;18.90;;;10.27;;
46447;SDS011;32145;50.390;30.778;2022-10-16T02:48:44;19.70;;;10.07;;
46447;SDS011;32145;50.390;30.778;2022-10-16T02:51:29;17.88;;;10.35;;
46447;SDS011;32145;50.390;30.778;2022-10-16T02:54:13;17.17;;;9.73;;
46447;SDS011;32145;50.390;30.778;2022-10-16T02:56:57;16.63;;;9.43;;
46447;SDS011;32145;50.390;30.778;2022-10-16T02:59:41;18.10;;;9.80;;
46447;SDS011;32145;50.390;30.778;2022-10-16T03:02:25;19.30;;;10.48;;
46447;SDS011;32145;50.390;30.778;2022-10-16T03:05:09;22.55;;;9.32;;
46447;SDS011;32145;50.390;30.778;2022-10-16T03:07:55;17.02;;;9.93;;
46447;SDS011;32145;50.390;30.778;2022-10-16T03:10:39;20.55;;;9.68;;
46447;SDS011;32145;50.390;30.778;2022-10-16T03:13:24;17.35;;;9.98;;
46447;SDS011;32145;50.390;30.778;2022-10-16T03:16:08;18.10;;;10.80;;
46447;SDS011;32145;50.390;30.778;2022-10-16T03:18:52;16.65;;;9.98;;
46447;SDS011;32145;50.390;30.778;2022-10-16T03:21:36;18.30;;;10.00;;
46447;SDS011;32145;50.390;30.778;2022-10-16T03:24:21;16.92;;;9.40;;
46447;SDS011;32145;50.390;30.778;2022-10-16T03:27:06;14.73;;;9.65;;
46447;SDS011;32145;50.390;30.778;2022-10-16T03:29:50;17.05;;;10.20;;
46447;SDS011;32145;50.390;30.778;2022-10-16T03:32:34;17.77;;;9.73;;
46447;SDS011;32145;50.390;30.778;2022-10-16T03:35:18;16.83;;;9.63;;
46447;SDS011;32145;50.390;30.778;2022-10-16T03:38:02;18.95;;;9.63;;
46447;SDS011;32145;50.390;30.778;2022-10-16T03:40:47;16.25;;;9.00;;
46447;SDS011;32145;50.390;30.778;2022-10-16T03:43:32;16.45;;;9.60;;
46447;SDS011;32145;50.390;30.778;2022-10-16T03:46:16;15.90;;;8.65;;
46447;SDS011;32145;50.390;30.778;2022-10-16T03:49:00;18.70;;;9.40;;
46447;SDS011;32145;50.390;30.778;2022-10-16T03:51:43;18.80;;;9.75;;
46447;SDS011;32145;50.390;30.778;2022-10-16T03:54:28;18.05;;;9.63;;
46447;SDS011;32145;50.390;30.778;2022-10-16T03:57:13;16.83;;;9.43;;
46447;SDS011;32145;50.390;30.778;2022-10-16T03:59:57;17.35;;;9.52;;
46447;SDS011;32145;50.390;30.778;2022-10-16T04:02:41;17.15;;;9.02;;
46447;SDS011;32145;50.390;30.778;2022-10-16T04:05:25;20.42;;;10.38;;
46447;SDS011;32145;50.390;30.778;2022-10-16T04:08:09;17.95;;;9.75;;
46447;SDS011;32145;50.390;30.778;2022-10-16T04:10:53;18.77;;;9.60;;
46447;SDS011;32145;50.390;30.778;2022-10-16T04:13:39;21.55;;;11.18;;
46447;SDS011;32145;50.390;30.778;2022-10-16T04:16:23;21.73;;;11.00;;
46447;SDS011;32145;50.390;30.778;2022-10-16T04:19:07;22.15;;;10.63;;
46447;SDS011;32145;50.390;30.778;2022-10-16T04:21:52;18.75;;;9.75;;
46447;SDS011;32145;50.390;30.778;2022-10-16T04:24:36;18.75;;;9.82;;
46447;SDS011;32145;50.390;30.778;2022-10-16T04:27:20;17.83;;;9.30;;
46447;SDS011;32145;50.390;30.778;2022-10-16T04:30:06;18.13;;;9.40;;
46447;SDS011;32145;50.390;30.778;2022-10-16T04:32:51;20.67;;;9.77;;
46447;SDS011;32145;50.390;30.778;2022-10-16T04:35:36;17.35;;;9.48;;
46447;SDS011;32145;50.390;30.778;2022-10-16T04:38:20;20.13;;;10.15;;
46447;SDS011;32145;50.390;30.778;2022-10-16T04:41:04;19.80;;;9.38;;
46447;SDS011;32145;50.390;30.778;2022-10-16T04:43:48;16.80;;;8.77;;
46447;SDS011;32145;50.390;30.778;2022-10-16T04:46:34;17.77;;;8.88;;
46447;SDS011;32145;50.390;30.778;2022-10-16T04:49:18;15.93;;;9.25;;
46447;SDS011;32145;50.390;30.778;2022-10-16T04:52:02;16.38;;;9.27;;
46447;SDS011;32145;50.390;30.778;2022-10-16T04:54:46;18.77;;;9.77;;
46447;SDS011;32145;50.390;30.778;2022-10-16T04:57:31;20.00;;;9.45;;
46447;SDS011;32145;50.390;30.778;2022-10-16T05:00:15;16.95;;;9.15;;
46447;SDS011;32145;50.390;30.778;2022-10-16T05:03:00;19.63;;;9.90;;
46447;SDS011;32145;50.390;30.778;2022-10-16T05:05:45;17.20;;;9.57;;
46447;SDS011;32145;50.390;30.778;2022-10-16T05:08:29;18.30;;;9.63;;
46447;SDS011;32145;50.390;30.778;2022-10-16T05:11:13;18.20;;;10.00;;
46447;SDS011;32145;50.390;30.778;2022-10-16T05:13:57;15.93;;;9.95;;
46447;SDS011;32145;50.390;30.778;2022-10-16T05:16:41;18.88;;;10.38;;
46447;SDS011;32145;50.390;30.778;2022-10-16T05:19:27;18.83;;;11.02;;
46447;SDS011;32145;50.390;30.778;2022-10-16T05:22:10;26.95;;;13.40;;
46447;SDS011;32145;50.390;30.778;2022-10-16T05:24:54;31.30;;;15.38;;
46447;SDS011;32145;50.390;30.778;2022-10-16T05:27:38;45.85;;;19.90;;
46447;SDS011;32145;50.390;30.778;2022-10-16T05:30:25;64.35;;;21.10;;
46447;SDS011;32145;50.390;30.778;2022-10-16T05:33:09;44.85;;;19.02;;
46447;SDS011;32145;50.390;30.778;2022-10-16T05:35:54;46.08;;;18.33;;
46447;SDS011;32145;50.390;30.778;2022-10-16T05:38:38;50.60;;;19.30;;
46447;SDS011;32145;50.390;30.778;2022-10-16T05:41:22;48.10;;;19.20;;
46447;SDS011;32145;50.390;30.778;2022-10-16T05:44:06;44.05;;;18.40;;
46447;SDS011;32145;50.390;30.778;2022-10-16T05:46:50;40.83;;;18.13;;
46447;SDS011;32145;50.390;30.778;2022-10-16T05:49:34;37.97;;;16.20;;
46447;SDS011;32145;50.390;30.778;2022-10-16T05:52:19;29.48;;;16.30;;
46447;SDS011;32145;50.390;30.778;2022-10-16T05:55:04;29.73;;;14.57;;
46447;SDS011;32145;50.390;30.778;2022-10-16T05:57:48;30.67;;;13.85;;
46447;SDS011;32145;50.390;30.778;2022-10-16T06:00:32;27.52;;;14.02;;
46447;SDS011;32145;50.390;30.778;2022-10-16T06:03:16;31.58;;;14.68;;
46447;SDS011;32145;50.390;30.778;2022-10-16T06:06:06;24.00;;;13.77;;
46447;SDS011;32145;50.390;30.778;2022-10-16T06:08:53;27.83;;;14.18;;
46447;SDS011;32145;50.390;30.778;2022-10-16T06:11:38;26.55;;;13.60;;
46447;SDS011;32145;50.390;30.778;2022-10-16T06:14:22;30.58;;;14.85;;
46447;SDS011;32145;50.390;30.778;2022-10-16T06:17:06;28.98;;;14.43;;
46447;SDS011;32145;50.390;30.778;2022-10-16T06:19:50;31.08;;;14.20;;
46447;SDS011;32145;50.390;30.778;2022-10-16T06:22:37;26.17;;;12.40;;
46447;SDS011;32145;50.390;30.778;2022-10-16T06:25:22;22.63;;;11.75;;
46447;SDS011;32145;50.390;30.778;2022-10-16T06:28:06;22.70;;;12.15;;
46447;SDS011;32145;50.390;30.778;2022-10-16T06:30:58;23.50;;;12.35;;
46447;SDS011;32145;50.390;30.778;2022-10-16T06:33:42;21.10;;;11.32;;
46447;SDS011;32145;50.390;30.778;2022-10-16T06:36:26;17.20;;;9.88;;
46447;SDS011;32145;50.390;30.778;2022-10-16T06:39:10;21.90;;;9.75;;
46447;SDS011;32145;50.390;30.778;2022-10-16T06:41:55;16.45;;;9.77;;
46447;SDS011;32145;50.390;30.778;2022-10-16T06:44:39;16.65;;;9.20;;
46447;SDS011;32145;50.390;30.778;2022-10-16T06:47:23;14.02;;;8.75;;
46447;SDS011;32145;50.390;30.778;2022-10-16T06:50:07;16.08;;;8.75;;
46447;SDS011;32145;50.390;30.778;2022-10-16T06:52:52;16.75;;;8.90;;
46447;SDS011;32145;50.390;30.778;2022-10-16T06:55:36;13.85;;;8.88;;
46447;SDS011;32145;50.390;30.778;2022-10-16T06:58:21;12.70;;;7.90;;
46447;SDS011;32145;50.390;30.778;2022-10-16T07:01:06;16.73;;;8.73;;
46447;SDS011;32145;50.390;30.778;2022-10-16T07:03:50;17.15;;;8.07;;
46447;SDS011;32145;50.390;30.778;2022-10-16T07:06:35;11.98;;;7.78;;
46447;SDS011;32145;50.390;30.778;2022-10-16T07:09:19;17.42;;;8.60;;
46447;SDS011;32145;50.390;30.778;2022-10-16T07:12:03;12.48;;;7.53;;
46447;SDS011;32145;50.390;30.778;2022-10-16T07:14:49;17.10;;;8.15;;
46447;SDS011;32145;50.390;30.778;2022-10-16T07:17:33;12.55;;;7.00;;
46447;SDS011;32145;50.390;30.778;2022-10-16T07:20:17;13.85;;;8.27;;
46447;SDS011;32145;50.390;30.778;2022-10-16T07:23:01;16.15;;;8.13;;
46447;SDS011;32145;50.390;30.778;2022-10-16T07:25:45;13.00;;;7.35;;
46447;SDS011;32145;50.390;30.778;2022-10-16T07:28:36;14.45;;;7.53;;
46447;SDS011;32145;50.390;30.778;2022-10-16T07:31:22;11.82;;;7.38;;
46447;SDS011;32145;50.390;30.778;2022-10-16T07:34:07;13.82;;;7.30;;
46447;SDS011;32145;50.390;30.778;2022-10-16T07:36:51;13.68;;;7.20;;
46447;SDS011;32145;50.390;30.778;2022-10-16T07:39:35;12.85;;;7.20;;
46447;SDS011;32145;50.390;30.778;2022-10-16T07:42:19;14.75;;;7.70;;
46447;SDS011;32145;50.390;30.778;2022-10-16T07:45:03;14.00;;;6.13;;
46447;SDS011;32145;50.390;30.778;2022-10-16T07:47:49;13.52;;;6.55;;
46447;SDS011;32145;50.390;30.778;2022-10-16T07:50:33;9.73;;;5.53;;
46447;SDS011;32145;50.390;30.778;2022-10-16T07:53:17;8.93;;;5.80;;
46447;SDS011;32145;50.390;30.778;2022-10-16T07:56:02;8.73;;;5.40;;
46447;SDS011;32145;50.390;30.778;2022-10-16T07:58:50;9.80;;;5.90;;
46447;SDS011;32145;50.390;30.778;2022-10-16T08:01:34;8.65;;;5.40;;
46447;SDS011;32145;50.390;30.778;2022-10-16T08:04:19;8.65;;;5.40;;
46447;SDS011;32145;50.390;30.778;2022-10-16T08:07:03;8.88;;;4.70;;
46447;SDS011;32145;50.390;30.778;2022-10-16T08:09:48;9.80;;;4.78;;
46447;SDS011;32145;50.390;30.778;2022-10-16T08:12:33;8.07;;;4.78;;
46447;SDS011;32145;50.390;30.778;2022-10-16T08:15:17;10.05;;;4.38;;
46447;SDS011;32145;50.390;30.778;2022-10-16T08:18:02;8.63;;;5.53;;
46447;SDS011;32145;50.390;30.778;2022-10-16T08:20:54;6.20;;;3.90;;
46447;SDS011;32145;50.390;30.778;2022-10-16T08:23:39;7.53;;;3.75;;
46447;SDS011;32145;50.390;30.778;2022-10-16T08:26:23;6.72;;;3.90;;
46447;SDS011;32145;50.390;30.778;2022-10-16T08:29:07;10.65;;;4.72;;
46447;SDS011;32145;50.390;30.778;2022-10-16T08:31:51;7.75;;;4.30;;
46447;SDS011;32145;50.390;30.778;2022-10-16T08:34:35;7.43;;;4.40;;
46447;SDS011;32145;50.390;30.778;2022-10-16T08:37:20;7.10;;;4.47;;
46447;SDS011;32145;50.390;30.778;2022-10-16T08:40:06;8.73;;;4.38;;
46447;SDS011;32145;50.390;30.778;2022-10-16T08:43:08;7.55;;;4.18;;
46447;SDS011;32145;50.390;30.778;2022-10-16T08:46:11;9.27;;;4.53;;
46447;SDS011;32145;50.390;30.778;2022-10-16T08:49:14;7.18;;;4.10;;
46447;SDS011;32145;50.390;30.778;2022-10-16T08:51:58;6.82;;;3.40;;
46447;SDS011;32145;50.390;30.778;2022-10-16T08:54:44;5.45;;;3.80;;
46447;SDS011;32145;50.390;30.778;2022-10-16T08:57:33;6.10;;;4.05;;
46447;SDS011;32145;50.390;30.778;2022-10-16T09:00:17;7.18;;;3.95;;
46447;SDS011;32145;50.390;30.778;2022-10-16T09:03:04;8.75;;;3.38;;
46447;SDS011;32145;50.390;30.778;2022-10-16T09:06:02;6.78;;;3.60;;
46447;SDS011;32145;50.390;30.778;2022-10-16T09:08:58;6.28;;;3.17;;
46447;SDS011;32145;50.390;30.778;2022-10-16T09:11:55;6.78;;;3.67;;
46447;SDS011;32145;50.390;30.778;2022-10-16T09:14:55;7.97;;;4.10;;
46447;SDS011;32145;50.390;30.778;2022-10-16T09:17:49;8.15;;;3.92;;
46447;SDS011;32145;50.390;30.778;2022-10-16T09:20:42;6.40;;;3.53;;
46447;SDS011;32145;50.390;30.778;2022-10-16T09:23:34;8.55;;;4.35;;
46447;SDS011;32145;50.390;30.778;2022-10-16T09:26:19;7.40;;;3.67;;
46447;SDS011;32145;50.390;30.778;2022-10-16T09:29:05;7.80;;;4.20;;
46447;SDS011;32145;50.390;30.778;2022-10-16T09:31:49;7.32;;;3.95;;
46447;SDS011;32145;50.390;30.778;2022-10-16T09:34:34;7.93;;;4.10;;
46447;SDS011;32145;50.390;30.778;2022-10-16T09:37:22;6.47;;;3.95;;
46447;SDS011;32145;50.390;30.778;2022-10-16T09:40:11;7.18;;;3.80;;
46447;SDS011;32145;50.390;30.778;2022-10-16T09:42:57;7.57;;;3.83;;
46447;SDS011;32145;50.390;30.778;2022-10-16T09:45:55;7.63;;;4.18;;
46447;SDS011;32145;50.390;30.778;2022-10-16T09:48:43;7.30;;;4.00;;
46447;SDS011;32145;50.390;30.778;2022-10-16T09:51:31;7.10;;;4.22;;
46447;SDS011;32145;50.390;30.778;2022-10-16T09:54:17;6.68;;;4.20;;
46447;SDS011;32145;50.390;30.778;2022-10-16T09:57:05;6.97;;;3.88;;
46447;SDS011;32145;50.390;30.778;2022-10-16T09:59:51;8.13;;;4.53;;
46447;SDS011;32145;50.390;30.778;2022-10-16T10:02:38;7.25;;;4.38;;
46447;SDS011;32145;50.390;30.778;2022-10-16T10:05:23;7.63;;;4.43;;
46447;SDS011;32145;50.390;30.778;2022-10-16T10:08:12;8.00;;;5.07;;
46447;SDS011;32145;50.390;30.778;2022-10-16T10:11:01;7.97;;;4.60;;
46447;SDS011;32145;50.390;30.778;2022-10-16T10:13:45;10.63;;;4.50;;
46447;SDS011;32145;50.390;30.778;2022-10-16T10:16:29;6.78;;;4.45;;
46447;SDS011;32145;50.390;30.778;2022-10-16T10:19:15;7.05;;;4.88;;
46447;SDS011;32145;50.390;30.778;2022-10-16T10:22:00;9.93;;;4.90;;
46447;SDS011;32145;50.390;30.778;2022-10-16T10:24:44;11.02;;;4.60;;
46447;SDS011;32145;50.390;30.778;2022-10-16T10:27:38;10.18;;;4.65;;
46447;SDS011;32145;50.390;30.778;2022-10-16T10:30:33;9.00;;;4.55;;
46447;SDS011;32145;50.390;30.778;2022-10-16T10:33:27;7.85;;;4.47;;
46447;SDS011;32145;50.390;30.778;2022-10-16T10:36:20;7.10;;;4.40;;
46447;SDS011;32145;50.390;30.778;2022-10-16T10:39:12;8.40;;;4.40;;
46447;SDS011;32145;50.390;30.778;2022-10-16T10:42:06;6.60;;;4.20;;
46447;SDS011;32145;50.390;30.778;2022-10-16T10:45:11;12.57;;;7.80;;
46447;SDS011;32145;50.390;30.778;2022-10-16T10:48:06;10.63;;;5.57;;
46447;SDS011;32145;50.390;30.778;2022-10-16T10:51:02;11.57;;;7.15;;
46447;SDS011;32145;50.390;30.778;2022-10-16T10:53:54;10.98;;;6.72;;
46447;SDS011;32145;50.390;30.778;2022-10-16T10:56:47;8.73;;;4.25;;
46447;SDS011;32145;50.390;30.778;2022-10-16T11:02:54;6.78;;;3.40;;
46447;SDS011;32145;50.390;30.778;2022-10-16T11:05:47;7.50;;;4.20;;
46447;SDS011;32145;50.390;30.778;2022-10-16T11:08:34;6.38;;;3.70;;
46447;SDS011;32145;50.390;30.778;2022-10-16T11:11:25;7.07;;;4.07;;
46447;SDS011;32145;50.390;30.778;2022-10-16T11:14:16;8.07;;;3.70;;
46447;SDS011;32145;50.390;30.778;2022-10-16T11:17:07;6.68;;;4.10;;
46447;SDS011;32145;50.390;30.778;2022-10-16T11:19:56;7.22;;;3.90;;
46447;SDS011;32145;50.390;30.778;2022-10-16T11:22:47;6.18;;;4.00;;
46447;SDS011;32145;50.390;30.778;2022-10-16T11:25:35;8.15;;;4.07;;
46447;SDS011;32145;50.390;30.778;2022-10-16T11:28:21;8.10;;;4.57;;
46447;SDS011;32145;50.390;30.778;2022-10-16T11:31:11;8.95;;;4.80;;
46447;SDS011;32145;50.390;30.778;2022-10-16T11:36:47;6.30;;;3.45;;
46447;SDS011;32145;50.390;30.778;2022-10-16T11:39:36;6.53;;;3.58;;
46447;SDS011;32145;50.390;30.778;2022-10-16T11:42:22;7.15;;;3.50;;
46447;SDS011;32145;50.390;30.778;2022-10-16T11:45:17;8.45;;;3.50;;
46447;SDS011;32145;50.390;30.778;2022-10-16T11:48:14;4.57;;;3.10;;
46447;SDS011;32145;50.390;30.778;2022-10-16T11:51:05;5.95;;;3.33;;
46447;SDS011;32145;50.390;30.778;2022-10-16T11:53:56;4.75;;;3.08;;
46447;SDS011;32145;50.390;30.778;2022-10-16T11:56:45;4.30;;;2.70;;
46447;SDS011;32145;50.390;30.778;2022-10-16T11:59:35;4.70;;;2.90;;
46447;SDS011;32145;50.390;30.778;2022-10-16T12:02:33;4.90;;;2.72;;
46447;SDS011;32145;50.390;30.778;2022-10-16T12:05:29;4.68;;;2.83;;
46447;SDS011;32145;50.390;30.778;2022-10-16T12:08:19;4.07;;;2.80;;
46447;SDS011;32145;50.390;30.778;2022-10-16T12:11:07;4.68;;;2.60;;
46447;SDS011;32145;50.390;30.778;2022-10-16T12:14:03;4.88;;;2.85;;
46447;SDS011;32145;50.390;30.778;2022-10-16T12:16:52;4.93;;;3.20;;
46447;SDS011;32145;50.390;30.778;2022-10-16T12:19:39;4.93;;;2.65;;
46447;SDS011;32145;50.390;30.778;2022-10-16T12:22:23;4.95;;;2.45;;
46447;SDS011;32145;50.390;30.778;2022-10-16T12:25:17;4.57;;;2.60;;
46447;SDS011;32145;50.390;30.778;2022-10-16T12:28:05;7.85;;;2.53;;
46447;SDS011;32145;50.390;30.778;2022-10-16T12:31:01;5.25;;;3.03;;
46447;SDS011;32145;50.390;30.778;2022-10-16T12:33:53;4.32;;;2.50;;
46447;SDS011;32145;50.390;30.778;2022-10-16T12:36:43;6.63;;;2.75;;
46447;SDS011;32145;50.390;30.778;2022-10-16T12:39:27;8.07;;;3.80;;
46447;SDS011;32145;50.390;30.778;2022-10-16T12:42:19;6.90;;;3.38;;
46447;SDS011;32145;50.390;30.778;2022-10-16T12:45:21;6.40;;;2.95;;
46447;SDS011;32145;50.390;30.778;2022-10-16T12:48:18;5.82;;;2.83;;
46447;SDS011;32145;50.390;30.778;2022-10-16T12:51:11;4.35;;;2.67;;
46447;SDS011;32145;50.390;30.778;2022-10-16T12:54:00;4.82;;;2.70;;
46447;SDS011;32145;50.390;30.778;2022-10-16T12:56:48;4.00;;;2.50;;
46447;SDS011;32145;50.390;30.778;2022-10-16T12:59:53;7.35;;;4.30;;
46447;SDS011;32145;50.390;30.778;2022-10-16T13:02:49;5.38;;;3.03;;
46447;SDS011;32145;50.390;30.778;2022-10-16T13:05:49;4.93;;;2.72;;
46447;SDS011;32145;50.390;30.778;2022-10-16T13:08:46;8.10;;;2.65;;
46447;SDS011;32145;50.390;30.778;2022-10-16T13:11:50;3.75;;;2.35;;
46447;SDS011;32145;50.390;30.778;2022-10-16T13:14:46;4.18;;;2.72;;
46447;SDS011;32145;50.390;30.778;2022-10-16T13:17:44;4.13;;;2.88;;
46447;SDS011;32145;50.390;30.778;2022-10-16T13:20:35;6.65;;;3.50;;
46447;SDS011;32145;50.390;30.778;2022-10-16T13:23:36;4.20;;;2.67;;
46447;SDS011;32145;50.390;30.778;2022-10-16T13:26:29;5.50;;;2.85;;
46447;SDS011;32145;50.390;30.778;2022-10-16T13:29:20;5.30;;;2.78;;
46447;SDS011;32145;50.390;30.778;2022-10-16T13:32:06;9.10;;;4.68;;
46447;SDS011;32145;50.390;30.778;2022-10-16T13:34:53;5.05;;;3.10;;
46447;SDS011;32145;50.390;30.778;2022-10-16T13:37:37;6.03;;;2.90;;
46447;SDS011;32145;50.390;30.778;2022-10-16T13:40:22;6.22;;;2.92;;
46447;SDS011;32145;50.390;30.778;2022-10-16T13:43:07;4.65;;;2.80;;
46447;SDS011;32145;50.390;30.778;2022-10-16T13:45:54;4.65;;;2.42;;
46447;SDS011;32145;50.390;30.778;2022-10-16T13:48:41;6.07;;;3.63;;
46447;SDS011;32145;50.390;30.778;2022-10-16T13:51:28;11.40;;;6.60;;
46447;SDS011;32145;50.390;30.778;2022-10-16T13:54:14;26.13;;;12.87;;
46447;SDS011;32145;50.390;30.778;2022-10-16T13:57:04;36.65;;;17.85;;
46447;SDS011;32145;50.390;30.778;2022-10-16T13:59:48;36.90;;;17.15;;
46447;SDS011;32145;50.390;30.778;2022-10-16T14:02:36;16.67;;;7.65;;
46447;SDS011;32145;50.390;30.778;2022-10-16T14:05:24;32.10;;;14.05;;
46447;SDS011;32145;50.390;30.778;2022-10-16T14:08:09;30.23;;;13.95;;
46447;SDS011;32145;50.390;30.778;2022-10-16T14:10:56;13.95;;;7.32;;
46447;SDS011;32145;50.390;30.778;2022-10-16T14:13:43;11.85;;;6.13;;
46447;SDS011;32145;50.390;30.778;2022-10-16T14:16:29;12.48;;;5.63;;
46447;SDS011;32145;50.390;30.778;2022-10-16T14:19:18;8.75;;;4.20;;
46447;SDS011;32145;50.390;30.778;2022-10-16T14:22:20;9.73;;;5.05;;
46447;SDS011;32145;50.390;30.778;2022-10-16T14:25:20;9.63;;;3.55;;
46447;SDS011;32145;50.390;30.778;2022-10-16T14:28:15;6.40;;;3.70;;
46447;SDS011;32145;50.390;30.778;2022-10-16T14:31:01;13.80;;;5.55;;
46447;SDS011;32145;50.390;30.778;2022-10-16T14:33:46;14.50;;;6.80;;
46447;SDS011;32145;50.390;30.778;2022-10-16T14:36:33;10.20;;;5.72;;
46447;SDS011;32145;50.390;30.778;2022-10-16T14:39:18;9.38;;;4.40;;
46447;SDS011;32145;50.390;30.778;2022-10-16T14:42:04;8.20;;;4.50;;
46447;SDS011;32145;50.390;30.778;2022-10-16T14:44:57;7.25;;;3.90;;
46447;SDS011;32145;50.390;30.778;2022-10-16T14:47:46;14.55;;;8.65;;
46447;SDS011;32145;50.390;30.778;2022-10-16T14:50:32;19.65;;;11.38;;
46447;SDS011;32145;50.390;30.778;2022-10-16T14:53:18;21.75;;;11.93;;
46447;SDS011;32145;50.390;30.778;2022-10-16T14:56:05;20.13;;;11.45;;
46447;SDS011;32145;50.390;30.778;2022-10-16T14:58:51;22.17;;;11.70;;
46447;SDS011;32145;50.390;30.778;2022-10-16T15:01:36;27.20;;;11.95;;
46447;SDS011;32145;50.390;30.778;2022-10-16T15:04:20;33.17;;;14.55;;
46447;SDS011;32145;50.390;30.778;2022-10-16T15:07:04;57.63;;;23.70;;
46447;SDS011;32145;50.390;30.778;2022-10-16T15:09:49;75.45;;;30.30;;
46447;SDS011;32145;50.390;30.778;2022-10-16T15:12:33;66.50;;;26.42;;
46447;SDS011;32145;50.390;30.778;2022-10-16T15:18:17;76.53;;;22.30;;
46447;SDS011;32145;50.390;30.778;2022-10-16T15:21:01;46.97;;;18.77;;
46447;SDS011;32145;50.390;30.778;2022-10-16T15:23:45;34.55;;;14.10;;
46447;SDS011;32145;50.390;30.778;2022-10-16T15:26:30;31.45;;;14.18;;
46447;SDS011;32145;50.390;30.778;2022-10-16T15:29:14;43.63;;;15.40;;
46447;SDS011;32145;50.390;30.778;2022-10-16T15:31:59;33.35;;;14.02;;
46447;SDS011;32145;50.390;30.778;2022-10-16T15:34:43;26.17;;;12.13;;
46447;SDS011;32145;50.390;30.778;2022-10-16T15:37:27;24.88;;;11.15;;
46447;SDS011;32145;50.390;30.778;2022-10-16T15:40:11;38.67;;;15.30;;
46447;SDS011;32145;50.390;30.778;2022-10-16T15:42:56;36.10;;;12.30;;
46447;SDS011;32145;50.390;30.778;2022-10-16T15:45:41;38.72;;;13.10;;
46447;SDS011;32145;50.390;30.778;2022-10-16T15:48:24;31.80;;;11.30;;
46447;SDS011;32145;50.390;30.778;2022-10-16T15:51:08;22.70;;;11.10;;
46447;SDS011;32145;50.390;30.778;2022-10-16T15:53:53;22.98;;;11.00;;
46447;SDS011;32145;50.390;30.778;2022-10-16T15:56:37;26.83;;;11.85;;
46447;SDS011;32145;50.390;30.778;2022-10-16T15:59:22;25.50;;;10.05;;
46447;SDS011;32145;50.390;30.778;2022-10-16T16:02:07;19.90;;;10.10;;
46447;SDS011;32145;50.390;30.778;2022-10-16T16:04:51;22.45;;;9.95;;
46447;SDS011;32145;50.390;30.778;2022-10-16T16:07:36;22.25;;;10.82;;
46447;SDS011;32145;50.390;30.778;2022-10-16T16:10:21;26.42;;;11.50;;
46447;SDS011;32145;50.390;30.778;2022-10-16T16:13:05;45.20;;;16.90;;
46447;SDS011;32145;50.390;30.778;2022-10-16T16:15:50;21.33;;;10.02;;
46447;SDS011;32145;50.390;30.778;2022-10-16T16:18:35;24.90;;;10.80;;
46447;SDS011;32145;50.390;30.778;2022-10-16T16:21:19;25.50;;;11.90;;
46447;SDS011;32145;50.390;30.778;2022-10-16T16:24:03;28.85;;;11.90;;
46447;SDS011;32145;50.390;30.778;2022-10-16T16:26:48;29.67;;;13.38;;
46447;SDS011;32145;50.390;30.778;2022-10-16T16:29:32;28.33;;;13.07;;